createdAt,value
2019-04-02T00:03:47.701Z,0.40
2019-04-02T00:06:17.196Z,0.47
2019-04-02T00:08:46.465Z,0.63
2019-04-02T00:11:15.867Z,0.30
2019-04-02T00:13:45.178Z,0.83
2019-04-02T00:16:14.593Z,0.40
2019-04-02T00:19:23.185Z,0.40
2019-04-02T00:21:52.544Z,0.50
2019-04-02T00:24:21.807Z,0.43
2019-04-02T00:29:27.162Z,0.50
2019-04-02T00:31:56.463Z,0.50
2019-04-02T00:34:25.930Z,0.43
2019-04-02T00:36:55.204Z,0.40
2019-04-02T00:39:43.514Z,0.30
2019-04-02T00:42:13.176Z,0.50
2019-04-02T00:44:42.480Z,0.40
2019-04-02T00:47:12.183Z,0.80
2019-04-02T00:49:43.210Z,0.30
2019-04-02T00:52:12.881Z,0.20
2019-04-02T00:54:42.196Z,0.40
2019-04-02T00:57:11.664Z,0.20
2019-04-02T00:59:40.975Z,0.33
2019-04-02T01:02:10.385Z,0.30
2019-04-02T01:04:39.892Z,0.40
2019-04-02T01:07:10.759Z,0.30
2019-04-02T01:09:40.088Z,0.40
2019-04-02T01:12:09.445Z,0.30
2019-04-02T01:14:38.730Z,0.30
2019-04-02T01:17:08.385Z,0.37
2019-04-02T01:19:39.298Z,0.40
2019-04-02T01:22:08.657Z,0.27
2019-04-02T01:24:38.075Z,0.37
2019-04-02T01:27:07.355Z,0.30
2019-04-02T01:29:36.690Z,0.30
2019-04-02T01:35:20.466Z,0.40
2019-04-02T01:37:49.745Z,0.30
2019-04-02T01:40:19.165Z,0.20
2019-04-02T01:42:48.465Z,0.30
2019-04-02T01:45:18.043Z,0.20
2019-04-02T01:47:47.325Z,0.20
2019-04-02T01:50:16.647Z,0.30
2019-04-02T01:52:45.960Z,0.30
2019-04-02T01:55:34.247Z,0.30
2019-04-02T01:58:03.581Z,0.20
2019-04-02T02:00:32.848Z,0.20
2019-04-02T02:03:02.409Z,0.20
2019-04-02T02:05:31.739Z,0.40
2019-04-02T02:08:01.377Z,0.40
2019-04-02T02:10:30.704Z,0.50
2019-04-02T02:13:00.239Z,0.60
2019-04-02T02:15:29.510Z,0.20
2019-04-02T02:17:59.508Z,0.37
2019-04-02T02:20:28.823Z,0.40
2019-04-02T02:22:58.452Z,0.40
2019-04-02T02:25:27.746Z,0.30
2019-04-02T02:27:57.596Z,0.20
2019-04-02T02:30:46.072Z,0.20
2019-04-02T02:33:17.390Z,0.30
2019-04-02T02:35:46.845Z,0.20
2019-04-02T02:38:55.459Z,0.40
2019-04-02T02:42:02.783Z,0.27
2019-04-02T02:47:34.229Z,0.20
2019-04-02T02:50:03.622Z,0.10
2019-04-02T02:52:32.910Z,0.20
2019-04-02T02:55:02.470Z,0.10
2019-04-02T02:57:31.729Z,0.10
2019-04-02T03:00:01.428Z,0.10
2019-04-02T03:02:30.752Z,0.27
2019-04-02T03:05:01.369Z,0.27
2019-04-02T03:10:26.462Z,0.20
2019-04-02T03:18:59.587Z,0.20
2019-04-02T03:21:29.165Z,0.40
2019-04-02T03:23:58.435Z,0.40
2019-04-02T03:29:25.024Z,0.20
2019-04-02T03:31:54.265Z,0.30
2019-04-02T03:37:13.475Z,0.30
2019-04-02T03:39:42.803Z,0.30
2019-04-02T03:42:12.078Z,0.30
2019-04-02T03:45:00.450Z,0.37
2019-04-02T03:47:30.014Z,0.30
2019-04-02T03:49:59.317Z,0.20
2019-04-02T03:52:28.805Z,0.30
2019-04-02T03:54:58.072Z,0.37
2019-04-02T03:57:27.503Z,0.20
2019-04-02T03:59:56.821Z,0.40
2019-04-02T04:02:26.355Z,0.30
2019-04-02T04:04:55.630Z,0.20
2019-04-02T04:07:25.647Z,0.30
2019-04-02T04:09:55.038Z,0.60
2019-04-02T04:12:24.493Z,0.30
2019-04-02T04:14:53.789Z,0.30
2019-04-02T04:17:23.417Z,0.30
2019-04-02T04:19:52.700Z,0.60
2019-04-02T04:22:23.126Z,0.30
2019-04-02T04:25:12.335Z,0.57
2019-04-02T04:28:00.650Z,0.40
2019-04-02T04:30:30.048Z,0.50
2019-04-02T04:32:59.332Z,0.30
2019-04-02T04:38:17.103Z,0.40
2019-04-02T04:40:46.420Z,0.40
2019-04-02T04:43:15.760Z,0.40
2019-04-02T04:45:45.073Z,0.30
2019-04-02T04:48:14.397Z,0.57
2019-04-02T04:50:43.788Z,0.27
2019-04-02T04:53:13.165Z,0.37
2019-04-02T04:55:42.684Z,0.40
2019-04-02T04:58:12.051Z,0.40
2019-04-02T05:00:41.494Z,0.47
2019-04-02T05:03:48.776Z,0.57
2019-04-02T05:06:18.366Z,0.40
2019-04-02T05:08:48.231Z,0.50
2019-04-02T05:11:17.753Z,0.37
2019-04-02T05:14:06.009Z,0.33
2019-04-02T05:16:54.266Z,0.60
2019-04-02T05:19:23.575Z,0.70
2019-04-02T05:21:53.165Z,0.60
2019-04-02T05:24:22.469Z,0.40
2019-04-02T05:26:52.113Z,0.70
2019-04-02T05:29:21.427Z,0.90
2019-04-02T05:31:51.961Z,0.80
2019-04-02T05:34:22.016Z,0.43
2019-04-02T05:36:52.391Z,0.80
2019-04-02T05:39:41.464Z,0.70
2019-04-02T05:42:12.194Z,0.60
2019-04-02T05:44:41.797Z,0.70
2019-04-02T05:47:11.089Z,0.80
2019-04-02T05:49:40.427Z,0.80
2019-04-02T05:52:28.731Z,0.50
2019-04-02T05:54:58.040Z,0.73
2019-04-02T05:57:27.403Z,0.80
2019-04-02T05:59:59.282Z,1.10
2019-04-02T06:02:46.767Z,0.83
2019-04-02T06:08:05.272Z,0.90
2019-04-02T06:10:34.650Z,1.37
2019-04-02T06:13:23.742Z,0.93
2019-04-02T06:15:54.378Z,0.80
2019-04-02T06:18:25.234Z,1.00
2019-04-02T06:20:56.964Z,1.00
2019-04-02T06:23:26.444Z,1.20
2019-04-02T06:25:56.085Z,1.10
2019-04-02T06:31:34.117Z,1.10
2019-04-02T06:34:03.480Z,1.10
2019-04-02T06:36:51.741Z,0.90
2019-04-02T06:39:26.127Z,0.97
2019-04-02T06:41:54.483Z,0.97
2019-04-02T06:44:24.742Z,1.20
2019-04-02T06:46:54.903Z,1.17
2019-04-02T06:49:43.211Z,1.10
2019-04-02T06:52:13.053Z,1.10
2019-04-02T06:54:45.659Z,1.10
2019-04-02T06:57:32.558Z,1.10
2019-04-02T07:00:02.257Z,1.03
2019-04-02T07:02:31.599Z,1.30
2019-04-02T07:05:01.098Z,1.03
2019-04-02T07:07:30.460Z,0.83
2019-04-02T07:10:00.231Z,1.07
2019-04-02T07:12:29.519Z,0.90
2019-04-02T07:14:58.912Z,0.90
2019-04-02T07:17:32.578Z,0.90
2019-04-02T07:20:03.843Z,0.77
2019-04-02T07:22:33.206Z,1.13
2019-04-02T07:25:02.548Z,1.17
2019-04-02T07:27:32.047Z,0.90
2019-04-02T07:30:01.351Z,0.87
2019-04-02T07:32:30.982Z,1.00
2019-04-02T07:35:00.327Z,1.00
2019-04-02T07:37:29.706Z,0.90
2019-04-02T07:39:59.003Z,0.90
2019-04-02T07:42:28.419Z,1.00
2019-04-02T07:44:57.722Z,1.32
2019-04-02T07:47:27.153Z,0.70
2019-04-02T07:50:15.353Z,0.97
2019-04-02T07:52:44.762Z,0.90
2019-04-02T07:55:14.075Z,1.10
2019-04-02T07:57:43.446Z,0.73
2019-04-02T08:00:13.224Z,0.80
2019-04-02T08:02:42.513Z,0.70
2019-04-02T08:05:51.276Z,0.70
2019-04-02T08:11:23.942Z,1.17
2019-04-02T08:14:12.279Z,1.07
2019-04-02T08:16:41.893Z,0.73
2019-04-02T08:19:11.265Z,1.00
2019-04-02T08:21:40.580Z,1.03
2019-04-02T08:24:09.896Z,0.60
2019-04-02T08:26:39.213Z,0.83
2019-04-02T08:29:08.573Z,0.77
2019-04-02T08:31:38.079Z,1.00
2019-04-02T08:34:08.030Z,1.03
2019-04-02T08:36:38.623Z,1.00
2019-04-02T08:39:27.765Z,0.87
2019-04-02T08:41:58.336Z,1.00
2019-04-02T08:45:07.525Z,1.10
2019-04-02T08:47:36.881Z,1.77
2019-04-02T08:50:07.218Z,1.27
2019-04-02T08:52:36.777Z,1.33
2019-04-02T08:58:02.222Z,1.23
2019-04-02T09:00:31.523Z,1.63
2019-04-02T09:03:01.266Z,1.80
2019-04-02T09:05:33.406Z,1.50
2019-04-02T09:08:01.675Z,1.30
2019-04-02T09:10:31.044Z,1.50
2019-04-02T09:13:19.402Z,1.67
2019-04-02T09:15:48.706Z,1.57
2019-04-02T09:18:17.997Z,1.83
2019-04-02T09:20:47.432Z,1.80
2019-04-02T09:23:16.756Z,1.40
2019-04-02T09:26:26.423Z,1.57
2019-04-02T09:29:14.770Z,1.50
2019-04-02T09:31:44.061Z,1.87
2019-04-02T09:34:13.359Z,1.60
2019-04-02T09:36:42.796Z,1.90
2019-04-02T09:39:31.132Z,1.70
2019-04-02T09:42:02.504Z,1.80
2019-04-02T09:44:32.153Z,1.60
2019-04-02T09:47:01.503Z,2.10
2019-04-02T09:49:31.346Z,1.53
2019-04-02T09:52:00.625Z,1.60
2019-04-02T09:54:30.140Z,1.40
2019-04-02T09:56:59.473Z,1.53
2019-04-02T09:59:29.094Z,1.50
2019-04-02T10:01:58.642Z,1.60
2019-04-02T10:04:46.968Z,1.27
2019-04-02T10:07:16.317Z,1.70
2019-04-02T10:12:41.398Z,1.63
2019-04-02T10:15:31.355Z,1.40
2019-04-02T10:18:00.769Z,1.47
2019-04-02T10:20:30.277Z,1.60
2019-04-02T10:22:59.700Z,1.40
2019-04-02T10:25:29.104Z,1.40
2019-04-02T10:27:58.367Z,1.63
2019-04-02T10:31:07.164Z,1.60
2019-04-02T10:33:36.493Z,1.60
2019-04-02T10:36:55.724Z,1.63
2019-04-02T10:39:35.482Z,1.70
2019-04-02T10:42:04.872Z,1.30
2019-04-02T10:44:34.475Z,1.90
2019-04-02T10:47:03.885Z,1.37
2019-04-02T10:49:33.505Z,1.50
2019-04-02T10:52:02.867Z,1.90
2019-04-02T10:54:32.259Z,1.83
2019-04-02T10:57:01.584Z,1.50
2019-04-02T10:59:31.282Z,2.07
2019-04-02T11:02:00.615Z,1.40
2019-04-02T11:04:30.731Z,2.00
2019-04-02T11:07:01.067Z,1.60
2019-04-02T11:09:30.445Z,1.57
2019-04-02T11:11:59.760Z,1.87
2019-04-02T11:14:29.810Z,1.97
2019-04-02T11:17:19.174Z,2.27
2019-04-02T11:19:48.460Z,1.93
2019-04-02T11:22:17.878Z,1.70
2019-04-02T11:24:47.150Z,1.73
2019-04-02T11:27:16.503Z,1.57
2019-04-02T11:29:45.924Z,1.47
2019-04-02T11:32:15.388Z,1.40
2019-04-02T11:34:44.677Z,1.70
2019-04-02T11:37:15.165Z,1.60
2019-04-02T11:39:45.233Z,1.60
2019-04-02T11:42:14.529Z,1.77
2019-04-02T11:45:02.796Z,1.40
2019-04-02T11:47:32.113Z,1.63
2019-04-02T11:50:03.822Z,1.20
2019-04-02T11:52:32.739Z,1.67
2019-04-02T11:55:03.403Z,1.57
2019-04-02T11:57:33.300Z,1.80
2019-04-02T12:00:05.536Z,1.43
2019-04-02T12:02:35.071Z,1.43
2019-04-02T12:05:05.573Z,1.77
2019-04-02T12:10:10.930Z,1.40
2019-04-02T12:12:40.216Z,1.40
2019-04-02T12:18:18.351Z,1.50
2019-04-02T12:21:06.671Z,1.60
2019-04-02T12:23:36.186Z,1.50
2019-04-02T12:26:05.478Z,1.80
2019-04-02T12:28:36.319Z,1.27
2019-04-02T12:31:06.437Z,1.37
2019-04-02T12:33:54.823Z,1.40
2019-04-02T12:36:24.430Z,1.40
2019-04-02T12:38:53.735Z,1.40
2019-04-02T12:41:23.212Z,1.30
2019-04-02T12:43:52.545Z,1.40
2019-04-02T12:46:22.018Z,2.13
2019-04-02T12:48:51.320Z,1.57
2019-04-02T12:51:20.761Z,1.27
2019-04-02T12:53:50.094Z,1.80
2019-04-02T12:56:19.428Z,1.40
2019-04-02T12:58:48.714Z,1.50
2019-04-02T13:01:18.253Z,1.30
2019-04-02T13:03:47.587Z,1.40
2019-04-02T13:06:17.105Z,1.43
2019-04-02T13:08:46.449Z,1.43
2019-04-02T13:11:15.757Z,1.33
2019-04-02T13:13:45.051Z,1.43
2019-04-02T13:16:14.448Z,1.27
2019-04-02T13:18:43.734Z,1.40
2019-04-02T13:21:13.290Z,1.57
2019-04-02T13:23:42.596Z,1.30
2019-04-02T13:26:12.167Z,1.20
2019-04-02T13:28:41.494Z,1.40
2019-04-02T13:31:11.174Z,1.30
2019-04-02T13:33:40.476Z,1.30
2019-04-02T13:36:10.190Z,1.37
2019-04-02T13:38:58.733Z,1.20
2019-04-02T13:41:28.056Z,1.30
2019-04-02T13:43:57.771Z,1.40
2019-04-02T13:46:46.329Z,1.30
2019-04-02T13:49:15.618Z,1.37
2019-04-02T13:51:45.368Z,1.50
2019-04-02T13:54:14.748Z,1.23
2019-04-02T13:56:44.254Z,1.50
2019-04-02T13:59:13.542Z,1.50
2019-04-02T14:01:43.347Z,1.80
2019-04-02T14:04:12.658Z,1.20
2019-04-02T14:06:42.416Z,1.50
2019-04-02T14:09:11.876Z,1.43
2019-04-02T14:11:41.591Z,1.30
2019-04-02T14:14:10.941Z,1.37
2019-04-02T14:16:40.254Z,1.50
2019-04-02T14:19:09.533Z,1.00
2019-04-02T14:21:41.414Z,1.30
2019-04-02T14:24:10.285Z,1.00
2019-04-02T14:26:39.986Z,1.27
2019-04-02T14:29:09.281Z,1.07
2019-04-02T14:31:38.774Z,1.20
2019-04-02T14:34:08.041Z,1.67
2019-04-02T14:36:37.549Z,1.20
2019-04-02T14:41:58.968Z,1.30
2019-04-02T14:47:17.061Z,1.47
2019-04-02T14:50:06.795Z,1.20
2019-04-02T14:52:37.475Z,1.37
2019-04-02T14:55:07.274Z,1.33
2019-04-02T14:57:47.398Z,1.20
2019-04-02T15:00:09.125Z,1.30
2019-04-02T15:02:38.789Z,1.33
2019-04-02T15:05:08.293Z,1.20
2019-04-02T15:07:56.653Z,1.50
2019-04-02T15:10:26.791Z,1.20
2019-04-02T15:12:56.094Z,1.53
2019-04-02T15:15:25.719Z,1.23
2019-04-02T15:17:56.367Z,1.07
2019-04-02T15:20:26.236Z,1.50
2019-04-02T15:22:55.595Z,1.53
2019-04-02T15:25:25.036Z,1.47
2019-04-02T15:27:54.338Z,1.23
2019-04-02T15:30:23.671Z,1.27
2019-04-02T15:32:53.036Z,1.23
2019-04-02T15:35:22.332Z,1.40
2019-04-02T15:37:51.687Z,1.67
2019-04-02T15:40:21.075Z,1.10
2019-04-02T15:42:50.379Z,1.30
2019-04-02T15:45:19.865Z,1.03
2019-04-02T15:47:49.114Z,1.60
2019-04-02T15:50:18.682Z,1.10
2019-04-02T15:52:48.058Z,1.20
2019-04-02T15:55:17.903Z,1.47
2019-04-02T15:57:47.198Z,1.00
2019-04-02T16:00:55.801Z,0.97
2019-04-02T16:03:25.086Z,1.00
2019-04-02T16:05:54.553Z,1.33
2019-04-02T16:08:23.898Z,0.93
2019-04-02T16:10:53.371Z,1.10
2019-04-02T16:13:23.914Z,1.40
2019-04-02T16:15:53.315Z,1.03
2019-04-02T16:18:22.647Z,1.00
2019-04-02T16:21:11.018Z,0.90
2019-04-02T16:23:40.569Z,1.37
2019-04-02T16:26:10.281Z,1.30
2019-04-02T16:28:39.634Z,0.87
2019-04-02T16:31:08.924Z,1.10
2019-04-02T16:33:38.383Z,1.10
2019-04-02T16:36:07.660Z,1.00
2019-04-02T16:38:39.397Z,1.27
2019-04-02T16:41:08.739Z,1.00
2019-04-02T16:43:58.604Z,1.40
2019-04-02T16:49:16.161Z,1.60
2019-04-02T16:51:45.567Z,1.07
2019-04-02T16:54:14.867Z,1.07
2019-04-02T16:56:44.163Z,1.30
2019-04-02T16:59:13.443Z,1.40
2019-04-02T17:01:42.787Z,1.07
2019-04-02T17:04:13.256Z,1.50
2019-04-02T17:06:43.198Z,1.50
2019-04-02T17:09:12.556Z,1.33
2019-04-02T17:11:42.084Z,1.50
2019-04-02T17:14:11.365Z,1.37
2019-04-02T17:16:43.138Z,1.30
2019-04-02T17:19:11.911Z,1.30
2019-04-02T17:21:46.763Z,1.40
2019-04-02T17:24:12.693Z,1.37
2019-04-02T17:26:42.414Z,1.57
2019-04-02T17:29:11.684Z,1.40
2019-04-02T17:31:41.335Z,1.83
2019-04-02T17:34:29.803Z,1.37
2019-04-02T17:36:59.084Z,1.13
2019-04-02T17:39:28.602Z,1.33
2019-04-02T17:41:57.917Z,1.37
2019-04-02T17:44:27.638Z,1.10
2019-04-02T17:46:56.986Z,1.07
2019-04-02T17:49:26.637Z,1.40
2019-04-02T17:51:55.980Z,1.50
2019-04-02T17:57:19.520Z,1.10
2019-04-02T17:59:49.020Z,1.10
2019-04-02T18:02:18.469Z,1.20
2019-04-02T18:04:48.888Z,1.13
2019-04-02T18:07:20.669Z,1.30
2019-04-02T18:09:49.833Z,1.33
2019-04-02T18:12:19.171Z,1.70
2019-04-02T18:14:48.565Z,1.03
2019-04-02T18:17:17.951Z,1.40
2019-04-02T18:19:47.441Z,1.30
2019-04-02T18:22:16.729Z,1.40
2019-04-02T18:24:46.500Z,1.37
2019-04-02T18:27:15.870Z,1.40
2019-04-02T18:29:45.559Z,1.70
2019-04-02T18:38:00.264Z,1.17
2019-04-02T18:40:41.699Z,1.10
2019-04-02T18:43:31.912Z,1.33
2019-04-02T18:46:02.475Z,1.10
2019-04-02T18:48:32.000Z,1.07
2019-04-02T18:51:13.430Z,1.20
2019-04-02T18:53:42.881Z,1.30
2019-04-02T18:56:12.985Z,1.30
2019-04-02T18:59:01.626Z,1.30
2019-04-02T19:01:31.806Z,1.17
2019-04-02T19:04:01.304Z,1.30
2019-04-02T19:18:04.540Z,0.97
2019-04-02T19:20:33.876Z,1.17
2019-04-02T19:26:10.774Z,1.40
2019-04-02T19:28:40.779Z,0.90
2019-04-02T19:34:04.422Z,1.13
2019-04-02T19:36:36.187Z,1.47
2019-04-02T19:39:26.154Z,1.13
2019-04-02T19:41:55.542Z,1.17
2019-04-02T19:44:25.766Z,1.10
2019-04-02T19:46:55.267Z,1.30
2019-04-02T19:49:24.796Z,1.33
2019-04-02T19:51:54.282Z,1.23
2019-04-02T19:54:23.877Z,1.40
2019-04-02T19:56:54.359Z,1.20
2019-04-02T19:59:26.613Z,1.17
2019-04-02T20:01:55.952Z,1.20
2019-04-02T20:04:25.527Z,1.50
2019-04-02T20:06:54.867Z,1.50
2019-04-02T20:09:24.323Z,1.10
2019-04-02T20:14:42.634Z,1.47
2019-04-02T20:17:13.251Z,1.50
2019-04-02T20:19:42.559Z,1.40
2019-04-02T20:22:12.663Z,1.37
2019-04-02T20:24:43.679Z,1.70
2019-04-02T20:27:14.996Z,1.40
2019-04-02T20:29:48.947Z,1.30
2019-04-02T20:32:16.336Z,0.93
2019-04-02T20:34:45.766Z,1.00
2019-04-02T20:37:15.119Z,1.50
2019-04-02T20:39:46.880Z,1.30
2019-04-02T20:42:29.024Z,1.50
2019-04-02T20:44:57.525Z,1.43
2019-04-02T20:47:26.834Z,1.53
2019-04-02T20:52:45.383Z,1.10
2019-04-02T20:55:14.802Z,1.80
2019-04-02T20:57:44.115Z,1.33
2019-04-02T21:00:14.349Z,1.70
2019-04-02T21:02:51.646Z,1.30
2019-04-02T21:05:14.936Z,1.23
2019-04-02T21:07:44.351Z,1.27
2019-04-02T21:10:18.896Z,1.00
2019-04-02T21:12:45.642Z,1.20
2019-04-02T21:18:11.040Z,1.03
2019-04-02T21:20:40.889Z,1.53
2019-04-02T21:23:10.141Z,1.30
2019-04-02T21:25:41.164Z,1.50
2019-04-02T21:28:10.765Z,1.23
2019-04-02T21:30:59.110Z,1.33
2019-04-02T21:33:34.284Z,1.43
2019-04-02T21:35:59.695Z,1.13
2019-04-02T21:38:29.704Z,1.20
2019-04-02T21:41:00.190Z,1.27
2019-04-02T21:46:17.856Z,1.40
2019-04-02T21:48:47.134Z,1.40
2019-04-02T21:51:16.488Z,1.07
2019-04-02T21:53:45.882Z,1.37
2019-04-02T21:56:15.229Z,1.23
2019-04-02T21:59:03.583Z,1.20
2019-04-02T22:01:32.943Z,1.33
2019-04-02T22:04:02.352Z,1.20
2019-04-02T22:06:31.688Z,1.53
2019-04-02T22:09:00.975Z,1.20
2019-04-02T22:11:30.309Z,1.13
2019-04-02T22:13:59.657Z,1.60
2019-04-02T22:16:29.242Z,1.20
2019-04-02T22:19:01.310Z,1.07
2019-04-02T22:21:30.984Z,1.30
2019-04-02T22:24:00.274Z,1.10
2019-04-02T22:26:48.661Z,1.20
2019-04-02T22:29:17.980Z,1.27
2019-04-02T22:31:47.916Z,0.90
2019-04-02T22:34:17.639Z,1.07
2019-04-02T22:37:05.971Z,1.33
2019-04-02T22:39:35.253Z,1.20
2019-04-02T22:42:24.248Z,1.10
2019-04-02T22:44:54.933Z,1.50
2019-04-02T22:50:12.640Z,1.40
2019-04-02T22:52:42.010Z,1.07
2019-04-02T22:55:11.848Z,1.10
2019-04-02T22:57:42.990Z,1.20
2019-04-02T23:00:12.418Z,1.10
2019-04-02T23:02:42.058Z,0.93
2019-04-02T23:05:11.349Z,1.30
2019-04-02T23:07:40.965Z,1.40
2019-04-02T23:10:10.456Z,1.30
2019-04-02T23:12:51.922Z,1.20
2019-04-02T23:15:21.264Z,1.00
2019-04-02T23:17:55.907Z,1.20
2019-04-02T23:20:21.885Z,1.13
2019-04-02T23:22:51.285Z,1.30
2019-04-02T23:25:20.559Z,1.40
2019-04-02T23:27:50.154Z,1.10
2019-04-02T23:30:21.674Z,1.30
2019-04-02T23:32:50.763Z,1.13
2019-04-02T23:35:20.092Z,1.30
2019-04-02T23:37:49.589Z,1.27
2019-04-02T23:40:18.965Z,1.33
2019-04-02T23:45:24.081Z,1.17
2019-04-02T23:47:53.387Z,1.30
2019-04-02T23:50:22.891Z,1.43
2019-04-02T23:52:52.162Z,1.17
2019-04-02T23:55:21.799Z,1.40
2019-04-02T23:57:51.155Z,1.50
